sensor_id;sensor_type;location;lat;lon;timestamp;P1;durP1;ratioP1;P2;durP2;ratioP2
47958;SDS011;33718;50.910;-1.514;2023-02-28T00:00:22;6.05;;;2.00;;
47958;SDS011;33718;50.910;-1.514;2023-02-28T00:02:26;7.07;;;2.45;;
47958;SDS011;33718;50.910;-1.514;2023-02-28T00:06:32;4.90;;;1.33;;
47958;SDS011;33718;50.910;-1.514;2023-02-28T00:08:34;4.95;;;1.83;;
47958;SDS011;33718;50.910;-1.514;2023-02-28T00:10:38;3.65;;;1.48;;
47958;SDS011;33718;50.910;-1.514;2023-02-28T00:12:40;6.25;;;1.95;;
47958;SDS011;33718;50.910;-1.514;2023-02-28T00:14:44;3.88;;;1.48;;
47958;SDS011;33718;50.910;-1.514;2023-02-28T00:16:46;6.40;;;1.55;;
47958;SDS011;33718;50.910;-1.514;2023-02-28T00:18:50;4.85;;;1.40;;
47958;SDS011;33718;50.910;-1.514;2023-02-28T00:20:52;2.83;;;1.42;;
47958;SDS011;33718;50.910;-1.514;2023-02-28T00:22:57;4.18;;;1.63;;
47958;SDS011;33718;50.910;-1.514;2023-02-28T00:25:18;4.63;;;1.40;;
47958;SDS011;33718;50.910;-1.514;2023-02-28T00:27:20;3.13;;;1.05;;
47958;SDS011;33718;50.910;-1.514;2023-02-28T00:31:31;5.00;;;1.17;;
47958;SDS011;33718;50.910;-1.514;2023-02-28T00:33:33;2.78;;;1.02;;
47958;SDS011;33718;50.910;-1.514;2023-02-28T00:35:34;4.70;;;0.88;;
47958;SDS011;33718;50.910;-1.514;2023-02-28T00:37:38;8.20;;;1.23;;
47958;SDS011;33718;50.910;-1.514;2023-02-28T00:39:40;4.28;;;1.20;;
47958;SDS011;33718;50.910;-1.514;2023-02-28T00:41:42;3.60;;;1.42;;
47958;SDS011;33718;50.910;-1.514;2023-02-28T00:43:44;3.22;;;1.60;;
47958;SDS011;33718;50.910;-1.514;2023-02-28T00:45:45;2.40;;;1.25;;
47958;SDS011;33718;50.910;-1.514;2023-02-28T00:47:49;8.00;;;1.70;;
47958;SDS011;33718;50.910;-1.514;2023-02-28T00:49:51;3.17;;;1.40;;
47958;SDS011;33718;50.910;-1.514;2023-02-28T00:51:53;3.78;;;1.90;;
47958;SDS011;33718;50.910;-1.514;2023-02-28T00:54:14;5.30;;;1.40;;
47958;SDS011;33718;50.910;-1.514;2023-02-28T00:56:15;4.60;;;1.55;;
47958;SDS011;33718;50.910;-1.514;2023-02-28T00:58:20;3.63;;;1.70;;
47958;SDS011;33718;50.910;-1.514;2023-02-28T01:00:22;8.27;;;2.75;;
47958;SDS011;33718;50.910;-1.514;2023-02-28T01:02:29;2.80;;;1.58;;
47958;SDS011;33718;50.910;-1.514;2023-02-28T01:04:49;7.43;;;1.30;;
47958;SDS011;33718;50.910;-1.514;2023-02-28T01:06:56;10.88;;;1.58;;
47958;SDS011;33718;50.910;-1.514;2023-02-28T01:09:02;9.25;;;1.63;;
47958;SDS011;33718;50.910;-1.514;2023-02-28T01:11:07;5.20;;;1.50;;
47958;SDS011;33718;50.910;-1.514;2023-02-28T01:13:09;4.30;;;1.58;;
47958;SDS011;33718;50.910;-1.514;2023-02-28T01:15:16;3.30;;;1.30;;
47958;SDS011;33718;50.910;-1.514;2023-02-28T01:19:24;8.65;;;1.42;;
47958;SDS011;33718;50.910;-1.514;2023-02-28T01:21:29;7.07;;;1.73;;
47958;SDS011;33718;50.910;-1.514;2023-02-28T01:23:34;5.95;;;1.55;;
47958;SDS011;33718;50.910;-1.514;2023-02-28T01:25:36;6.72;;;1.38;;
47958;SDS011;33718;50.910;-1.514;2023-02-28T01:27:40;8.73;;;1.50;;
47958;SDS011;33718;50.910;-1.514;2023-02-28T01:29:42;3.50;;;1.20;;
47958;SDS011;33718;50.910;-1.514;2023-02-28T01:31:44;5.43;;;1.60;;
47958;SDS011;33718;50.910;-1.514;2023-02-28T01:33:46;5.75;;;1.83;;
47958;SDS011;33718;50.910;-1.514;2023-02-28T01:36:07;4.40;;;1.60;;
47958;SDS011;33718;50.910;-1.514;2023-02-28T01:38:13;4.70;;;1.27;;
47958;SDS011;33718;50.910;-1.514;2023-02-28T01:40:25;6.03;;;1.48;;
47958;SDS011;33718;50.910;-1.514;2023-02-28T01:42:27;3.42;;;1.88;;
47958;SDS011;33718;50.910;-1.514;2023-02-28T01:45:35;5.18;;;2.00;;
47958;SDS011;33718;50.910;-1.514;2023-02-28T01:47:05;5.43;;;1.52;;
47958;SDS011;33718;50.910;-1.514;2023-02-28T01:49:13;5.93;;;1.42;;
47958;SDS011;33718;50.910;-1.514;2023-02-28T01:51:17;6.30;;;1.60;;
47958;SDS011;33718;50.910;-1.514;2023-02-28T01:53:21;5.90;;;1.60;;
47958;SDS011;33718;50.910;-1.514;2023-02-28T01:55:24;5.78;;;2.03;;
47958;SDS011;33718;50.910;-1.514;2023-02-28T01:57:38;2.45;;;1.45;;
47958;SDS011;33718;50.910;-1.514;2023-02-28T02:00:00;4.00;;;1.52;;
47958;SDS011;33718;50.910;-1.514;2023-02-28T02:02:21;8.48;;;1.90;;
47958;SDS011;33718;50.910;-1.514;2023-02-28T02:05:05;7.30;;;2.58;;
47958;SDS011;33718;50.910;-1.514;2023-02-28T02:07:26;5.13;;;1.63;;
47958;SDS011;33718;50.910;-1.514;2023-02-28T02:09:40;6.55;;;2.22;;
47958;SDS011;33718;50.910;-1.514;2023-02-28T02:11:57;7.15;;;2.33;;
47958;SDS011;33718;50.910;-1.514;2023-02-28T02:14:30;8.55;;;1.77;;
47958;SDS011;33718;50.910;-1.514;2023-02-28T02:16:49;3.47;;;1.83;;
47958;SDS011;33718;50.910;-1.514;2023-02-28T02:19:13;5.32;;;1.98;;
47958;SDS011;33718;50.910;-1.514;2023-02-28T02:23:47;2.88;;;1.40;;
47958;SDS011;33718;50.910;-1.514;2023-02-28T02:26:22;9.35;;;1.42;;
47958;SDS011;33718;50.910;-1.514;2023-02-28T02:28:57;6.50;;;1.90;;
47958;SDS011;33718;50.910;-1.514;2023-02-28T02:31:32;12.13;;;3.20;;
47958;SDS011;33718;50.910;-1.514;2023-02-28T02:33:45;9.43;;;1.95;;
47958;SDS011;33718;50.910;-1.514;2023-02-28T02:36:07;2.92;;;2.08;;
47958;SDS011;33718;50.910;-1.514;2023-02-28T02:40:25;10.18;;;3.42;;
47958;SDS011;33718;50.910;-1.514;2023-02-28T02:42:35;4.85;;;2.00;;
47958;SDS011;33718;50.910;-1.514;2023-02-28T02:44:46;6.93;;;2.28;;
47958;SDS011;33718;50.910;-1.514;2023-02-28T02:47:00;3.42;;;1.58;;
47958;SDS011;33718;50.910;-1.514;2023-02-28T02:49:06;8.35;;;1.75;;
47958;SDS011;33718;50.910;-1.514;2023-02-28T02:53:20;3.92;;;1.80;;
47958;SDS011;33718;50.910;-1.514;2023-02-28T02:55:26;5.45;;;1.55;;
47958;SDS011;33718;50.910;-1.514;2023-02-28T02:58:22;6.00;;;1.90;;
47958;SDS011;33718;50.910;-1.514;2023-02-28T02:59:59;7.60;;;1.92;;
47958;SDS011;33718;50.910;-1.514;2023-02-28T03:02:07;3.30;;;2.45;;
47958;SDS011;33718;50.910;-1.514;2023-02-28T03:04:14;7.15;;;1.75;;
47958;SDS011;33718;50.910;-1.514;2023-02-28T03:06:20;6.03;;;1.67;;
47958;SDS011;33718;50.910;-1.514;2023-02-28T03:08:21;7.40;;;1.85;;
47958;SDS011;33718;50.910;-1.514;2023-02-28T03:10:42;7.38;;;2.05;;
47958;SDS011;33718;50.910;-1.514;2023-02-28T03:12:49;13.30;;;2.50;;
47958;SDS011;33718;50.910;-1.514;2023-02-28T03:14:59;6.80;;;1.98;;
47958;SDS011;33718;50.910;-1.514;2023-02-28T03:21:43;8.00;;;1.98;;
47958;SDS011;33718;50.910;-1.514;2023-02-28T03:24:10;12.18;;;3.97;;
47958;SDS011;33718;50.910;-1.514;2023-02-28T03:26:19;6.07;;;2.85;;
47958;SDS011;33718;50.910;-1.514;2023-02-28T03:32:59;5.93;;;2.17;;
47958;SDS011;33718;50.910;-1.514;2023-02-28T03:35:06;10.65;;;2.63;;
47958;SDS011;33718;50.910;-1.514;2023-02-28T03:37:13;8.23;;;2.38;;
47958;SDS011;33718;50.910;-1.514;2023-02-28T03:39:23;7.82;;;3.08;;
47958;SDS011;33718;50.910;-1.514;2023-02-28T03:41:36;10.05;;;2.42;;
47958;SDS011;33718;50.910;-1.514;2023-02-28T03:43:45;9.20;;;2.55;;
47958;SDS011;33718;50.910;-1.514;2023-02-28T03:45:47;9.23;;;2.20;;
47958;SDS011;33718;50.910;-1.514;2023-02-28T03:52:11;7.93;;;3.03;;
47958;SDS011;33718;50.910;-1.514;2023-02-28T03:54:15;8.82;;;2.97;;
47958;SDS011;33718;50.910;-1.514;2023-02-28T03:56:27;9.50;;;2.75;;
47958;SDS011;33718;50.910;-1.514;2023-02-28T04:00:54;5.78;;;2.35;;
47958;SDS011;33718;50.910;-1.514;2023-02-28T04:02:56;12.43;;;2.88;;
47958;SDS011;33718;50.910;-1.514;2023-02-28T04:05:01;7.05;;;2.78;;
47958;SDS011;33718;50.910;-1.514;2023-02-28T04:07:21;11.52;;;2.78;;
47958;SDS011;33718;50.910;-1.514;2023-02-28T04:09:22;10.43;;;2.75;;
47958;SDS011;33718;50.910;-1.514;2023-02-28T04:11:33;7.15;;;3.17;;
47958;SDS011;33718;50.910;-1.514;2023-02-28T04:13:36;12.95;;;3.53;;
47958;SDS011;33718;50.910;-1.514;2023-02-28T04:15:37;4.80;;;2.38;;
47958;SDS011;33718;50.910;-1.514;2023-02-28T04:17:57;8.05;;;3.00;;
47958;SDS011;33718;50.910;-1.514;2023-02-28T04:19:59;18.80;;;2.80;;
47958;SDS011;33718;50.910;-1.514;2023-02-28T04:22:00;5.65;;;2.75;;
47958;SDS011;33718;50.910;-1.514;2023-02-28T04:24:02;5.20;;;2.60;;
47958;SDS011;33718;50.910;-1.514;2023-02-28T04:26:07;7.55;;;3.28;;
47958;SDS011;33718;50.910;-1.514;2023-02-28T04:28:15;7.82;;;4.45;;
47958;SDS011;33718;50.910;-1.514;2023-02-28T04:30:16;9.93;;;2.95;;
47958;SDS011;33718;50.910;-1.514;2023-02-28T04:32:21;15.48;;;3.15;;
47958;SDS011;33718;50.910;-1.514;2023-02-28T04:34:22;13.23;;;3.95;;
47958;SDS011;33718;50.910;-1.514;2023-02-28T04:36:25;11.77;;;3.47;;
47958;SDS011;33718;50.910;-1.514;2023-02-28T04:38:26;11.05;;;4.38;;
47958;SDS011;33718;50.910;-1.514;2023-02-28T04:40:28;12.70;;;2.97;;
47958;SDS011;33718;50.910;-1.514;2023-02-28T04:42:29;13.57;;;3.65;;
47958;SDS011;33718;50.910;-1.514;2023-02-28T04:44:36;15.35;;;3.78;;
47958;SDS011;33718;50.910;-1.514;2023-02-28T04:46:38;12.70;;;3.17;;
47958;SDS011;33718;50.910;-1.514;2023-02-28T04:48:40;8.20;;;4.13;;
47958;SDS011;33718;50.910;-1.514;2023-02-28T04:50:41;13.48;;;4.00;;
47958;SDS011;33718;50.910;-1.514;2023-02-28T04:52:49;9.15;;;3.95;;
47958;SDS011;33718;50.910;-1.514;2023-02-28T04:54:50;19.10;;;4.10;;
47958;SDS011;33718;50.910;-1.514;2023-02-28T04:56:55;13.98;;;3.95;;
47958;SDS011;33718;50.910;-1.514;2023-02-28T04:58:56;12.02;;;3.53;;
47958;SDS011;33718;50.910;-1.514;2023-02-28T05:01:05;14.80;;;3.95;;
47958;SDS011;33718;50.910;-1.514;2023-02-28T05:03:20;27.85;;;4.20;;
47958;SDS011;33718;50.910;-1.514;2023-02-28T05:05:37;13.18;;;3.80;;
47958;SDS011;33718;50.910;-1.514;2023-02-28T05:07:48;14.75;;;4.68;;
47958;SDS011;33718;50.910;-1.514;2023-02-28T05:10:07;14.60;;;4.07;;
47958;SDS011;33718;50.910;-1.514;2023-02-28T05:12:30;14.18;;;4.10;;
47958;SDS011;33718;50.910;-1.514;2023-02-28T05:15:04;11.13;;;3.25;;
47958;SDS011;33718;50.910;-1.514;2023-02-28T05:17:34;11.77;;;4.05;;
47958;SDS011;33718;50.910;-1.514;2023-02-28T05:19:59;7.32;;;3.05;;
47958;SDS011;33718;50.910;-1.514;2023-02-28T05:22:21;15.68;;;4.38;;
47958;SDS011;33718;50.910;-1.514;2023-02-28T05:24:33;11.07;;;3.25;;
47958;SDS011;33718;50.910;-1.514;2023-02-28T05:26:46;9.93;;;3.60;;
47958;SDS011;33718;50.910;-1.514;2023-02-28T05:29:12;8.75;;;4.13;;
47958;SDS011;33718;50.910;-1.514;2023-02-28T05:31:28;10.27;;;4.28;;
47958;SDS011;33718;50.910;-1.514;2023-02-28T05:33:43;14.65;;;6.22;;
47958;SDS011;33718;50.910;-1.514;2023-02-28T05:36:06;17.58;;;6.97;;
47958;SDS011;33718;50.910;-1.514;2023-02-28T05:38:13;18.23;;;6.82;;
47958;SDS011;33718;50.910;-1.514;2023-02-28T05:40:18;19.33;;;7.28;;
47958;SDS011;33718;50.910;-1.514;2023-02-28T05:42:21;29.33;;;6.90;;
47958;SDS011;33718;50.910;-1.514;2023-02-28T05:44:23;17.70;;;5.57;;
47958;SDS011;33718;50.910;-1.514;2023-02-28T05:46:28;17.55;;;5.70;;
47958;SDS011;33718;50.910;-1.514;2023-02-28T05:48:50;19.17;;;4.57;;
47958;SDS011;33718;50.910;-1.514;2023-02-28T05:50:52;12.25;;;5.13;;
47958;SDS011;33718;50.910;-1.514;2023-02-28T05:55:01;13.80;;;4.53;;
47958;SDS011;33718;50.910;-1.514;2023-02-28T05:57:02;16.40;;;5.10;;
47958;SDS011;33718;50.910;-1.514;2023-02-28T05:59:15;11.55;;;5.55;;
47958;SDS011;33718;50.910;-1.514;2023-02-28T06:03:21;9.10;;;4.55;;
47958;SDS011;33718;50.910;-1.514;2023-02-28T06:07:30;13.07;;;5.18;;
47958;SDS011;33718;50.910;-1.514;2023-02-28T06:09:31;12.65;;;4.60;;
47958;SDS011;33718;50.910;-1.514;2023-02-28T06:11:36;17.67;;;5.53;;
47958;SDS011;33718;50.910;-1.514;2023-02-28T06:13:40;12.87;;;4.60;;
47958;SDS011;33718;50.910;-1.514;2023-02-28T06:15:45;10.00;;;4.55;;
47958;SDS011;33718;50.910;-1.514;2023-02-28T06:17:49;11.73;;;5.50;;
47958;SDS011;33718;50.910;-1.514;2023-02-28T06:19:50;12.35;;;5.65;;
47958;SDS011;33718;50.910;-1.514;2023-02-28T06:22:10;13.38;;;4.57;;
47958;SDS011;33718;50.910;-1.514;2023-02-28T06:24:12;9.43;;;4.93;;
47958;SDS011;33718;50.910;-1.514;2023-02-28T06:26:32;12.90;;;4.78;;
47958;SDS011;33718;50.910;-1.514;2023-02-28T06:28:34;9.70;;;5.00;;
47958;SDS011;33718;50.910;-1.514;2023-02-28T06:30:37;11.93;;;5.07;;
47958;SDS011;33718;50.910;-1.514;2023-02-28T06:32:41;11.25;;;5.63;;
47958;SDS011;33718;50.910;-1.514;2023-02-28T06:34:43;13.38;;;6.00;;
47958;SDS011;33718;50.910;-1.514;2023-02-28T06:36:44;15.18;;;6.50;;
47958;SDS011;33718;50.910;-1.514;2023-02-28T06:38:49;13.50;;;6.78;;
47958;SDS011;33718;50.910;-1.514;2023-02-28T06:41:02;16.23;;;5.97;;
47958;SDS011;33718;50.910;-1.514;2023-02-28T06:43:04;13.85;;;6.78;;
47958;SDS011;33718;50.910;-1.514;2023-02-28T06:45:06;13.40;;;6.40;;
47958;SDS011;33718;50.910;-1.514;2023-02-28T06:47:13;18.83;;;7.82;;
47958;SDS011;33718;50.910;-1.514;2023-02-28T06:49:15;13.75;;;7.47;;
47958;SDS011;33718;50.910;-1.514;2023-02-28T06:51:20;15.70;;;8.15;;
47958;SDS011;33718;50.910;-1.514;2023-02-28T06:53:23;17.90;;;5.82;;
47958;SDS011;33718;50.910;-1.514;2023-02-28T06:55:25;18.60;;;6.93;;
47958;SDS011;33718;50.910;-1.514;2023-02-28T06:57:31;12.77;;;7.00;;
47958;SDS011;33718;50.910;-1.514;2023-02-28T06:59:52;14.85;;;6.65;;
47958;SDS011;33718;50.910;-1.514;2023-02-28T07:02:12;21.27;;;7.68;;
47958;SDS011;33718;50.910;-1.514;2023-02-28T07:04:16;14.07;;;7.40;;
47958;SDS011;33718;50.910;-1.514;2023-02-28T07:06:19;12.70;;;6.95;;
47958;SDS011;33718;50.910;-1.514;2023-02-28T07:08:23;22.80;;;7.72;;
47958;SDS011;33718;50.910;-1.514;2023-02-28T07:10:28;19.02;;;8.82;;
47958;SDS011;33718;50.910;-1.514;2023-02-28T07:12:33;23.63;;;12.73;;
47958;SDS011;33718;50.910;-1.514;2023-02-28T07:14:37;39.30;;;17.95;;
47958;SDS011;33718;50.910;-1.514;2023-02-28T07:16:42;37.92;;;16.40;;
47958;SDS011;33718;50.910;-1.514;2023-02-28T07:18:47;37.38;;;15.63;;
47958;SDS011;33718;50.910;-1.514;2023-02-28T07:20:52;39.22;;;16.85;;
47958;SDS011;33718;50.910;-1.514;2023-02-28T07:22:57;35.45;;;14.02;;
47958;SDS011;33718;50.910;-1.514;2023-02-28T07:25:05;30.30;;;14.15;;
47958;SDS011;33718;50.910;-1.514;2023-02-28T07:27:10;35.40;;;12.85;;
47958;SDS011;33718;50.910;-1.514;2023-02-28T07:29:11;27.35;;;11.68;;
47958;SDS011;33718;50.910;-1.514;2023-02-28T07:33:18;24.25;;;10.73;;
47958;SDS011;33718;50.910;-1.514;2023-02-28T07:35:20;22.02;;;10.57;;
47958;SDS011;33718;50.910;-1.514;2023-02-28T07:37:24;27.17;;;12.57;;
47958;SDS011;33718;50.910;-1.514;2023-02-28T07:39:44;25.65;;;10.82;;
47958;SDS011;33718;50.910;-1.514;2023-02-28T07:43:52;16.30;;;8.32;;
47958;SDS011;33718;50.910;-1.514;2023-02-28T07:45:54;18.15;;;9.05;;
47958;SDS011;33718;50.910;-1.514;2023-02-28T07:47:56;21.52;;;8.90;;
47958;SDS011;33718;50.910;-1.514;2023-02-28T07:49:58;18.70;;;8.07;;
47958;SDS011;33718;50.910;-1.514;2023-02-28T07:52:06;18.75;;;8.98;;
47958;SDS011;33718;50.910;-1.514;2023-02-28T07:54:08;22.73;;;9.10;;
47958;SDS011;33718;50.910;-1.514;2023-02-28T07:56:12;21.10;;;7.80;;
47958;SDS011;33718;50.910;-1.514;2023-02-28T07:58:14;16.13;;;7.47;;
47958;SDS011;33718;50.910;-1.514;2023-02-28T08:00:15;14.60;;;7.85;;
47958;SDS011;33718;50.910;-1.514;2023-02-28T08:02:17;18.92;;;8.48;;
47958;SDS011;33718;50.910;-1.514;2023-02-28T08:04:20;13.23;;;7.65;;
47958;SDS011;33718;50.910;-1.514;2023-02-28T08:06:24;14.90;;;6.35;;
47958;SDS011;33718;50.910;-1.514;2023-02-28T08:10:40;12.90;;;6.40;;
47958;SDS011;33718;50.910;-1.514;2023-02-28T08:12:52;14.90;;;7.57;;
47958;SDS011;33718;50.910;-1.514;2023-02-28T08:15:08;10.23;;;6.28;;
47958;SDS011;33718;50.910;-1.514;2023-02-28T08:17:19;10.40;;;6.25;;
47958;SDS011;33718;50.910;-1.514;2023-02-28T08:19:32;10.10;;;6.00;;
47958;SDS011;33718;50.910;-1.514;2023-02-28T08:21:47;12.82;;;5.57;;
47958;SDS011;33718;50.910;-1.514;2023-02-28T08:23:56;10.50;;;5.53;;
47958;SDS011;33718;50.910;-1.514;2023-02-28T08:26:13;11.98;;;5.97;;
47958;SDS011;33718;50.910;-1.514;2023-02-28T08:28:24;13.90;;;6.20;;
47958;SDS011;33718;50.910;-1.514;2023-02-28T08:30:37;9.05;;;6.93;;
47958;SDS011;33718;50.910;-1.514;2023-02-28T08:32:45;7.45;;;5.65;;
47958;SDS011;33718;50.910;-1.514;2023-02-28T08:35:01;13.15;;;5.75;;
47958;SDS011;33718;50.910;-1.514;2023-02-28T08:39:27;6.47;;;4.90;;
47958;SDS011;33718;50.910;-1.514;2023-02-28T08:41:38;10.57;;;5.28;;
47958;SDS011;33718;50.910;-1.514;2023-02-28T08:43:43;5.97;;;4.07;;
47958;SDS011;33718;50.910;-1.514;2023-02-28T08:46:03;7.10;;;4.03;;
47958;SDS011;33718;50.910;-1.514;2023-02-28T08:48:06;6.75;;;3.97;;
47958;SDS011;33718;50.910;-1.514;2023-02-28T08:50:10;5.85;;;3.97;;
47958;SDS011;33718;50.910;-1.514;2023-02-28T08:52:12;6.45;;;3.75;;
47958;SDS011;33718;50.910;-1.514;2023-02-28T08:54:16;4.30;;;3.15;;
47958;SDS011;33718;50.910;-1.514;2023-02-28T08:56:23;7.18;;;4.63;;
47958;SDS011;33718;50.910;-1.514;2023-02-28T08:58:28;8.20;;;4.55;;
47958;SDS011;33718;50.910;-1.514;2023-02-28T09:00:32;8.68;;;3.85;;
47958;SDS011;33718;50.910;-1.514;2023-02-28T09:02:34;7.13;;;4.05;;
47958;SDS011;33718;50.910;-1.514;2023-02-28T09:04:38;6.90;;;4.25;;
47958;SDS011;33718;50.910;-1.514;2023-02-28T09:06:40;5.60;;;3.75;;
47958;SDS011;33718;50.910;-1.514;2023-02-28T09:08:44;6.82;;;4.05;;
47958;SDS011;33718;50.910;-1.514;2023-02-28T09:10:49;11.40;;;3.97;;
47958;SDS011;33718;50.910;-1.514;2023-02-28T09:12:53;4.03;;;3.47;;
47958;SDS011;33718;50.910;-1.514;2023-02-28T09:15:01;6.75;;;4.93;;
47958;SDS011;33718;50.910;-1.514;2023-02-28T09:17:03;9.35;;;4.43;;
47958;SDS011;33718;50.910;-1.514;2023-02-28T09:19:05;5.07;;;4.15;;
47958;SDS011;33718;50.910;-1.514;2023-02-28T09:23:13;10.53;;;4.20;;
47958;SDS011;33718;50.910;-1.514;2023-02-28T09:25:15;6.07;;;4.20;;
47958;SDS011;33718;50.910;-1.514;2023-02-28T09:27:24;5.38;;;4.85;;
47958;SDS011;33718;50.910;-1.514;2023-02-28T09:29:25;10.13;;;4.68;;
47958;SDS011;33718;50.910;-1.514;2023-02-28T09:31:27;8.13;;;4.60;;
47958;SDS011;33718;50.910;-1.514;2023-02-28T09:33:29;7.22;;;4.03;;
47958;SDS011;33718;50.910;-1.514;2023-02-28T09:35:33;6.30;;;4.22;;
47958;SDS011;33718;50.910;-1.514;2023-02-28T09:37:38;5.63;;;3.95;;
47958;SDS011;33718;50.910;-1.514;2023-02-28T09:39:39;7.25;;;3.72;;
47958;SDS011;33718;50.910;-1.514;2023-02-28T09:41:42;5.32;;;3.13;;
47958;SDS011;33718;50.910;-1.514;2023-02-28T09:43:53;3.30;;;3.00;;
47958;SDS011;33718;50.910;-1.514;2023-02-28T09:46:08;6.90;;;3.45;;
47958;SDS011;33718;50.910;-1.514;2023-02-28T09:48:14;4.47;;;3.00;;
47958;SDS011;33718;50.910;-1.514;2023-02-28T09:52:19;3.78;;;2.78;;
47958;SDS011;33718;50.910;-1.514;2023-02-28T09:54:30;5.28;;;3.10;;
47958;SDS011;33718;50.910;-1.514;2023-02-28T09:56:39;3.80;;;2.92;;
47958;SDS011;33718;50.910;-1.514;2023-02-28T09:58:52;4.90;;;2.88;;
47958;SDS011;33718;50.910;-1.514;2023-02-28T10:01:10;6.72;;;3.00;;
47958;SDS011;33718;50.910;-1.514;2023-02-28T10:03:27;3.20;;;2.58;;
47958;SDS011;33718;50.910;-1.514;2023-02-28T10:05:33;4.57;;;2.67;;
47958;SDS011;33718;50.910;-1.514;2023-02-28T10:09:58;3.95;;;2.40;;
47958;SDS011;33718;50.910;-1.514;2023-02-28T10:12:06;3.47;;;2.38;;
47958;SDS011;33718;50.910;-1.514;2023-02-28T10:14:15;3.20;;;2.38;;
47958;SDS011;33718;50.910;-1.514;2023-02-28T10:16:20;6.43;;;2.38;;
47958;SDS011;33718;50.910;-1.514;2023-02-28T10:18:31;3.33;;;3.00;;
47958;SDS011;33718;50.910;-1.514;2023-02-28T10:20:39;3.50;;;3.20;;
47958;SDS011;33718;50.910;-1.514;2023-02-28T10:24:59;3.78;;;3.45;;
47958;SDS011;33718;50.910;-1.514;2023-02-28T10:27:52;5.65;;;3.45;;
47958;SDS011;33718;50.910;-1.514;2023-02-28T10:29:34;7.93;;;4.00;;
47958;SDS011;33718;50.910;-1.514;2023-02-28T10:31:39;9.55;;;3.92;;
47958;SDS011;33718;50.910;-1.514;2023-02-28T10:33:41;4.38;;;3.95;;
47958;SDS011;33718;50.910;-1.514;2023-02-28T10:35:45;5.93;;;3.85;;
47958;SDS011;33718;50.910;-1.514;2023-02-28T10:38:09;5.18;;;3.70;;
47958;SDS011;33718;50.910;-1.514;2023-02-28T10:42:25;7.10;;;4.32;;
47958;SDS011;33718;50.910;-1.514;2023-02-28T10:44:46;4.70;;;3.88;;
47958;SDS011;33718;50.910;-1.514;2023-02-28T10:49:02;4.15;;;3.55;;
47958;SDS011;33718;50.910;-1.514;2023-02-28T10:51:08;4.78;;;3.70;;
47958;SDS011;33718;50.910;-1.514;2023-02-28T10:53:16;4.25;;;3.80;;
47958;SDS011;33718;50.910;-1.514;2023-02-28T10:57:20;10.38;;;4.22;;
47958;SDS011;33718;50.910;-1.514;2023-02-28T10:59:26;5.07;;;3.20;;
47958;SDS011;33718;50.910;-1.514;2023-02-28T11:03:34;5.25;;;2.50;;
47958;SDS011;33718;50.910;-1.514;2023-02-28T11:05:39;3.88;;;2.53;;
47958;SDS011;33718;50.910;-1.514;2023-02-28T11:07:42;3.58;;;2.90;;
47958;SDS011;33718;50.910;-1.514;2023-02-28T11:09:54;2.72;;;2.45;;
47958;SDS011;33718;50.910;-1.514;2023-02-28T11:12:04;4.85;;;2.80;;
47958;SDS011;33718;50.910;-1.514;2023-02-28T11:14:39;4.43;;;2.90;;
47958;SDS011;33718;50.910;-1.514;2023-02-28T11:16:50;3.08;;;2.50;;
47958;SDS011;33718;50.910;-1.514;2023-02-28T11:19:03;6.80;;;3.00;;
47958;SDS011;33718;50.910;-1.514;2023-02-28T11:21:48;4.07;;;2.80;;
47958;SDS011;33718;50.910;-1.514;2023-02-28T11:23:48;4.57;;;3.33;;
47958;SDS011;33718;50.910;-1.514;2023-02-28T11:25:54;6.03;;;3.55;;
47958;SDS011;33718;50.910;-1.514;2023-02-28T11:28:05;5.47;;;2.88;;
47958;SDS011;33718;50.910;-1.514;2023-02-28T11:30:26;3.45;;;3.10;;
47958;SDS011;33718;50.910;-1.514;2023-02-28T11:32:30;6.72;;;4.03;;
47958;SDS011;33718;50.910;-1.514;2023-02-28T11:34:36;5.10;;;3.22;;
47958;SDS011;33718;50.910;-1.514;2023-02-28T11:36:42;4.50;;;3.33;;
47958;SDS011;33718;50.910;-1.514;2023-02-28T11:38:50;4.65;;;3.47;;
47958;SDS011;33718;50.910;-1.514;2023-02-28T11:43:10;5.68;;;3.70;;
47958;SDS011;33718;50.910;-1.514;2023-02-28T11:45:20;3.67;;;2.72;;
47958;SDS011;33718;50.910;-1.514;2023-02-28T11:47:53;5.88;;;2.55;;
47958;SDS011;33718;50.910;-1.514;2023-02-28T11:52:21;3.05;;;2.35;;
47958;SDS011;33718;50.910;-1.514;2023-02-28T11:54:43;3.92;;;2.47;;
47958;SDS011;33718;50.910;-1.514;2023-02-28T11:56:57;4.93;;;2.75;;
47958;SDS011;33718;50.910;-1.514;2023-02-28T11:59:23;2.65;;;2.05;;
47958;SDS011;33718;50.910;-1.514;2023-02-28T12:01:53;3.78;;;2.78;;
47958;SDS011;33718;50.910;-1.514;2023-02-28T12:26:09;2.88;;;2.30;;
47958;SDS011;33718;50.910;-1.514;2023-02-28T12:28:13;3.17;;;2.05;;
47958;SDS011;33718;50.910;-1.514;2023-02-28T12:30:28;4.10;;;2.70;;
47958;SDS011;33718;50.910;-1.514;2023-02-28T12:32:36;2.35;;;2.00;;
47958;SDS011;33718;50.910;-1.514;2023-02-28T12:34:44;2.92;;;1.77;;
47958;SDS011;33718;50.910;-1.514;2023-02-28T12:36:49;1.67;;;1.58;;
47958;SDS011;33718;50.910;-1.514;2023-02-28T12:39:01;1.33;;;1.23;;
47958;SDS011;33718;50.910;-1.514;2023-02-28T12:41:13;1.80;;;1.50;;
47958;SDS011;33718;50.910;-1.514;2023-02-28T12:43:17;3.40;;;1.55;;
47958;SDS011;33718;50.910;-1.514;2023-02-28T12:45:23;1.20;;;1.08;;
47958;SDS011;33718;50.910;-1.514;2023-02-28T12:47:29;2.97;;;1.38;;
47958;SDS011;33718;50.910;-1.514;2023-02-28T12:51:32;5.63;;;1.38;;
47958;SDS011;33718;50.910;-1.514;2023-02-28T12:53:43;1.65;;;1.45;;
47958;SDS011;33718;50.910;-1.514;2023-02-28T12:58:01;2.80;;;1.42;;
47958;SDS011;33718;50.910;-1.514;2023-02-28T13:06:49;2.33;;;1.10;;
47958;SDS011;33718;50.910;-1.514;2023-02-28T13:09:01;2.67;;;1.55;;
47958;SDS011;33718;50.910;-1.514;2023-02-28T13:11:04;4.00;;;1.40;;
47958;SDS011;33718;50.910;-1.514;2023-02-28T13:13:23;5.45;;;1.42;;
47958;SDS011;33718;50.910;-1.514;2023-02-28T13:15:30;1.35;;;1.20;;
47958;SDS011;33718;50.910;-1.514;2023-02-28T13:17:32;2.13;;;1.15;;
47958;SDS011;33718;50.910;-1.514;2023-02-28T13:19:44;4.32;;;1.52;;
47958;SDS011;33718;50.910;-1.514;2023-02-28T13:21:49;3.30;;;1.05;;
47958;SDS011;33718;50.910;-1.514;2023-02-28T13:25:58;1.65;;;1.55;;
47958;SDS011;33718;50.910;-1.514;2023-02-28T13:28:01;1.60;;;1.50;;
47958;SDS011;33718;50.910;-1.514;2023-02-28T13:32:32;2.47;;;1.88;;
47958;SDS011;33718;50.910;-1.514;2023-02-28T13:37:30;2.47;;;1.88;;
47958;SDS011;33718;50.910;-1.514;2023-02-28T13:41:43;2.85;;;1.35;;
47958;SDS011;33718;50.910;-1.514;2023-02-28T13:44:05;2.75;;;1.50;;
47958;SDS011;33718;50.910;-1.514;2023-02-28T13:46:12;4.18;;;1.77;;
47958;SDS011;33718;50.910;-1.514;2023-02-28T13:48:29;2.05;;;1.65;;
47958;SDS011;33718;50.910;-1.514;2023-02-28T13:50:34;2.20;;;1.77;;
47958;SDS011;33718;50.910;-1.514;2023-02-28T13:52:42;1.70;;;1.25;;
47958;SDS011;33718;50.910;-1.514;2023-02-28T13:59:27;2.17;;;1.60;;
47958;SDS011;33718;50.910;-1.514;2023-02-28T14:06:36;2.17;;;1.00;;
47958;SDS011;33718;50.910;-1.514;2023-02-28T14:08:42;1.50;;;1.20;;
47958;SDS011;33718;50.910;-1.514;2023-02-28T14:10:48;1.45;;;1.27;;
47958;SDS011;33718;50.910;-1.514;2023-02-28T14:12:54;3.90;;;1.73;;
47958;SDS011;33718;50.910;-1.514;2023-02-28T14:15:01;2.40;;;1.65;;
47958;SDS011;33718;50.910;-1.514;2023-02-28T14:17:14;2.38;;;1.58;;
47958;SDS011;33718;50.910;-1.514;2023-02-28T14:21:32;4.57;;;1.85;;
47958;SDS011;33718;50.910;-1.514;2023-02-28T14:26:02;2.38;;;1.60;;
47958;SDS011;33718;50.910;-1.514;2023-02-28T14:37:16;2.92;;;2.00;;
47958;SDS011;33718;50.910;-1.514;2023-02-28T14:39:22;3.60;;;1.80;;
47958;SDS011;33718;50.910;-1.514;2023-02-28T14:41:31;3.20;;;2.25;;
47958;SDS011;33718;50.910;-1.514;2023-02-28T14:43:49;7.90;;;2.25;;
47958;SDS011;33718;50.910;-1.514;2023-02-28T14:48:08;5.97;;;3.10;;
47958;SDS011;33718;50.910;-1.514;2023-02-28T14:50:21;2.17;;;1.88;;
47958;SDS011;33718;50.910;-1.514;2023-02-28T14:52:49;4.03;;;1.33;;